KFEW/FEW METAR and TAF weather

Enter ICAO airport designator
Station Type Date Time Source
KFEW METAR 2019/05/19 20:58 UTC NOAA

KFEW 192058Z AUTO 10008KT 10SM BKN025 06/00 A2997 RMK AO2 SLPNO T00620002 57008 $


Station Type Date Time Source
KFEW Decoded METAR 2019/05/19 20:58 UTC NOAA

Station name not available
May 19, 2019 - 04:58 PM EDT / 2019.05.19 2058 UTC
Wind: from the E (100 degrees) at 9 MPH (8 KT):0
Visibility: 10 mile(s):0
Sky conditions: mostly cloudy
Temperature: 43.2 F (6.2 C)
Dew Point: 32.4 F (0.2 C)
Relative Humidity: 65%
Pressure (altimeter): 29.97 in. Hg (1014 hPa)
Pressure tendency: 0.02 inches (0.8 hPa) lower than three hours ago
ob: KFEW 192058Z AUTO 10008KT 10SM BKN025 06/00 A2997 RMK AO2 SLPNO T00620002 57008
cycle: 21

Station Type Date Time Source
KFEW TAF UTC NOAA

Error!

Example: see airport list